TEJ127 SCQP-SCEL
Flight info
| Callsign | TEJ127 |
|---|---|
| Flight time | 1h 2m |
| Altitude | 34000 |
| Route | KETIR7E KETIR UQ802 EROLO EROLO7F |
| Aircraft | B738/M-SDE2E3FGHIRWXY/LB1 |
Departure
| Time | 2026-04-19 05:25 |
|---|---|
| Airport | La Araucanía International Airport (SCQP) |
Arrival
| Time | 2026-04-19 06:27 |
|---|---|
| Airport | Comodoro Arturo Merino Benítez International Airport (SCEL) |
| Time | Latitude | Longitude | Altitude | Speed | Heading |
|---|---|---|---|---|---|
| 2026-04-19 05:02 | -38.92658 | -72.64749 | 310 ft | 0 kts | 106° |
| 2026-04-19 05:15 | -38.92652 | -72.64778 | 312 ft | 4 kts | 103° |
| 2026-04-19 05:15 | -38.92647 | -72.64812 | 312 ft | 4 kts | 97° |
| 2026-04-19 05:15 | -38.92646 | -72.64846 | 313 ft | 4 kts | 79° |
| 2026-04-19 05:16 | -38.92655 | -72.64871 | 311 ft | 3 kts | 22° |
| 2026-04-19 05:16 | -38.92659 | -72.64873 | 309 ft | 0 kts | 17° |
| 2026-04-19 05:20 | -38.92642 | -72.64867 | 312 ft | 4 kts | 17° |
| 2026-04-19 05:20 | -38.92630 | -72.64862 | 311 ft | 7 kts | 17° |
| 2026-04-19 05:20 | -38.92569 | -72.64838 | 313 ft | 10 kts | 17° |
| 2026-04-19 05:20 | -38.92504 | -72.64811 | 311 ft | 10 kts | 18° |
| 2026-04-19 05:21 | -38.92430 | -72.64796 | 312 ft | 11 kts | 341° |
| 2026-04-19 05:21 | -38.92392 | -72.64875 | 312 ft | 11 kts | 289° |
| 2026-04-19 05:21 | -38.92369 | -72.64963 | 312 ft | 11 kts | 288° |
| 2026-04-19 05:21 | -38.92332 | -72.65037 | 313 ft | 10 kts | 341° |
| 2026-04-19 05:22 | -38.92235 | -72.65022 | 313 ft | 16 kts | 19° |
| 2026-04-19 05:22 | -38.92129 | -72.64978 | 313 ft | 16 kts | 16° |
| 2026-04-19 05:22 | -38.92027 | -72.64939 | 313 ft | 15 kts | 17° |
| 2026-04-19 05:22 | -38.91930 | -72.64901 | 313 ft | 14 kts | 17° |
| 2026-04-19 05:23 | -38.91836 | -72.64864 | 313 ft | 14 kts | 17° |
| 2026-04-19 05:23 | -38.91737 | -72.64825 | 314 ft | 16 kts | 17° |
| 2026-04-19 05:23 | -38.91625 | -72.64788 | 312 ft | 15 kts | 353° |
| 2026-04-19 05:23 | -38.91548 | -72.64785 | 312 ft | 8 kts | 54° |
| 2026-04-19 05:24 | -38.91572 | -72.64760 | 312 ft | 5 kts | 184° |
| 2026-04-19 05:24 | -38.91594 | -72.64769 | 312 ft | 0 kts | 197° |
| 2026-04-19 05:24 | -38.91702 | -72.64811 | 313 ft | 49 kts | 197° |
| 2026-04-19 05:25 | -38.92377 | -72.65077 | 318 ft | 150 kts | 197° |
| 2026-04-19 05:25 | -38.93491 | -72.65512 | 1195 ft | 175 kts | 197° |
| 2026-04-19 05:25 | -38.94678 | -72.66015 | 2454 ft | 193 kts | 198° |
| 2026-04-19 05:25 | -38.96092 | -72.66579 | 3022 ft | 227 kts | 196° |
| 2026-04-19 05:26 | -38.97624 | -72.67171 | 3952 ft | 232 kts | 197° |
| 2026-04-19 05:26 | -38.99230 | -72.67796 | 4490 ft | 251 kts | 197° |
| 2026-04-19 05:26 | -39.00900 | -72.68597 | 5308 ft | 261 kts | 212° |
| 2026-04-19 05:26 | -39.02147 | -72.70269 | 6370 ft | 263 kts | 242° |
| 2026-04-19 05:27 | -39.02639 | -72.72513 | 7373 ft | 264 kts | 269° |
| 2026-04-19 05:27 | -39.02253 | -72.74813 | 8363 ft | 267 kts | 297° |
| 2026-04-19 05:27 | -39.01058 | -72.76633 | 9375 ft | 272 kts | 323° |
| 2026-04-19 05:27 | -38.99330 | -72.77556 | 10336 ft | 280 kts | 347° |
| 2026-04-19 05:28 | -38.97303 | -72.77699 | 10741 ft | 307 kts | 359° |
| 2026-04-19 05:28 | -38.95068 | -72.77472 | 10951 ft | 336 kts | 3° |
| 2026-04-19 05:28 | -38.92657 | -72.77137 | 11271 ft | 358 kts | 3° |
| 2026-04-19 05:28 | -38.90149 | -72.76793 | 11962 ft | 365 kts | 2° |
| 2026-04-19 05:29 | -38.87610 | -72.76475 | 12841 ft | 368 kts | 2° |
| 2026-04-19 05:29 | -38.85052 | -72.76183 | 13713 ft | 371 kts | 1° |
| 2026-04-19 05:29 | -38.82462 | -72.75907 | 14470 ft | 375 kts | 1° |
| 2026-04-19 05:29 | -38.79877 | -72.75640 | 15174 ft | 380 kts | 0° |
| 2026-04-19 05:30 | -38.77227 | -72.75369 | 15904 ft | 384 kts | 0° |
| 2026-04-19 05:30 | -38.74550 | -72.75049 | 16614 ft | 390 kts | 5° |
| 2026-04-19 05:30 | -38.71931 | -72.73929 | 17281 ft | 404 kts | 21° |
| 2026-04-19 05:30 | -38.69392 | -72.72346 | 17996 ft | 409 kts | 21° |
| 2026-04-19 05:31 | -38.66819 | -72.70746 | 18626 ft | 414 kts | 21° |
| 2026-04-19 05:31 | -38.64214 | -72.69140 | 19215 ft | 417 kts | 20° |
| 2026-04-19 05:31 | -38.61585 | -72.67535 | 19842 ft | 420 kts | 20° |
| 2026-04-19 05:31 | -38.58973 | -72.65952 | 20453 ft | 423 kts | 20° |
| 2026-04-19 05:32 | -38.56306 | -72.64343 | 21048 ft | 426 kts | 20° |
| 2026-04-19 05:32 | -38.53615 | -72.62725 | 21617 ft | 429 kts | 19° |
| 2026-04-19 05:32 | -38.50901 | -72.61096 | 22178 ft | 433 kts | 19° |
| 2026-04-19 05:32 | -38.48166 | -72.59457 | 22721 ft | 436 kts | 19° |
| 2026-04-19 05:33 | -38.45408 | -72.57804 | 23253 ft | 439 kts | 19° |
| 2026-04-19 05:33 | -38.42634 | -72.56142 | 23768 ft | 443 kts | 19° |
| 2026-04-19 05:33 | -38.39835 | -72.54466 | 24184 ft | 446 kts | 19° |
| 2026-04-19 05:33 | -38.37056 | -72.52804 | 24593 ft | 449 kts | 19° |
| 2026-04-19 05:34 | -38.34219 | -72.51107 | 24995 ft | 452 kts | 18° |
| 2026-04-19 05:34 | -38.31364 | -72.49401 | 25389 ft | 455 kts | 18° |
| 2026-04-19 05:34 | -38.28490 | -72.47686 | 25777 ft | 458 kts | 18° |
| 2026-04-19 05:34 | -38.25592 | -72.45986 | 26139 ft | 459 kts | 15° |
| 2026-04-19 05:35 | -38.22576 | -72.44790 | 26487 ft | 452 kts | 6° |
| 2026-04-19 05:35 | -38.19501 | -72.43935 | 26877 ft | 453 kts | 4° |
| 2026-04-19 05:35 | -38.16406 | -72.43153 | 27234 ft | 455 kts | 4° |
| 2026-04-19 05:35 | -38.13331 | -72.42379 | 27569 ft | 458 kts | 4° |
| 2026-04-19 05:36 | -38.10201 | -72.41568 | 27892 ft | 461 kts | 4° |
| 2026-04-19 05:36 | -38.07059 | -72.40724 | 28226 ft | 463 kts | 5° |
| 2026-04-19 05:36 | -38.03894 | -72.39854 | 28567 ft | 466 kts | 5° |
| 2026-04-19 05:36 | -38.00735 | -72.38971 | 29020 ft | 465 kts | 5° |
| 2026-04-19 05:37 | -37.97587 | -72.38085 | 29578 ft | 462 kts | 5° |
| 2026-04-19 05:37 | -37.94455 | -72.37203 | 30083 ft | 461 kts | 4° |
| 2026-04-19 05:37 | -37.91326 | -72.36327 | 30469 ft | 461 kts | 4° |
| 2026-04-19 05:37 | -37.88198 | -72.35453 | 30874 ft | 459 kts | 4° |
| 2026-04-19 05:38 | -37.85127 | -72.34597 | 31319 ft | 457 kts | 4° |
| 2026-04-19 05:38 | -37.82036 | -72.33736 | 31780 ft | 454 kts | 4° |
| 2026-04-19 05:38 | -37.78955 | -72.32879 | 32215 ft | 452 kts | 4° |
| 2026-04-19 05:38 | -37.75890 | -72.32028 | 32614 ft | 451 kts | 4° |
| 2026-04-19 05:39 | -37.72827 | -72.31179 | 32999 ft | 450 kts | 3° |
| 2026-04-19 05:39 | -37.69773 | -72.30333 | 33425 ft | 448 kts | 3° |
| 2026-04-19 05:39 | -37.66733 | -72.29489 | 33862 ft | 446 kts | 3° |
| 2026-04-19 05:39 | -37.63707 | -72.28648 | 34109 ft | 447 kts | 3° |
| 2026-04-19 05:40 | -37.60703 | -72.27768 | 34092 ft | 449 kts | 4° |
| 2026-04-19 05:40 | -37.54649 | -72.25906 | 34095 ft | 447 kts | 4° |
| 2026-04-19 05:41 | -37.48614 | -72.24037 | 34100 ft | 445 kts | 4° |
| 2026-04-19 05:41 | -37.42605 | -72.22197 | 34093 ft | 444 kts | 4° |
| 2026-04-19 05:42 | -37.36602 | -72.20372 | 34090 ft | 443 kts | 4° |
| 2026-04-19 05:42 | -37.30650 | -72.18568 | 34090 ft | 443 kts | 4° |
| 2026-04-19 05:43 | -37.24655 | -72.16755 | 34085 ft | 443 kts | 4° |
| 2026-04-19 05:43 | -37.18658 | -72.14943 | 34082 ft | 443 kts | 3° |
| 2026-04-19 05:44 | -37.12660 | -72.13134 | 34087 ft | 443 kts | 3° |
| 2026-04-19 05:44 | -37.06660 | -72.11326 | 34074 ft | 444 kts | 3° |
| 2026-04-19 05:45 | -37.00701 | -72.09534 | 34079 ft | 444 kts | 3° |
| 2026-04-19 05:45 | -36.94700 | -72.07732 | 34081 ft | 444 kts | 3° |
| 2026-04-19 05:46 | -36.88693 | -72.05931 | 34080 ft | 444 kts | 2° |
| 2026-04-19 05:46 | -36.82688 | -72.04133 | 34079 ft | 444 kts | 2° |
| 2026-04-19 05:47 | -36.76727 | -72.02352 | 34072 ft | 443 kts | 2° |
| 2026-04-19 05:47 | -36.70728 | -72.00562 | 34067 ft | 443 kts | 2° |
| 2026-04-19 05:48 | -36.64737 | -71.98777 | 34065 ft | 443 kts | 2° |
| 2026-04-19 05:48 | -36.58746 | -71.96996 | 34067 ft | 442 kts | 2° |
| 2026-04-19 05:49 | -36.52799 | -71.95230 | 34066 ft | 442 kts | 2° |
| 2026-04-19 05:49 | -36.46813 | -71.93456 | 34062 ft | 442 kts | 2° |
| 2026-04-19 05:50 | -36.40835 | -71.91687 | 34061 ft | 442 kts | 2° |
| 2026-04-19 05:50 | -36.34860 | -71.89921 | 34063 ft | 442 kts | 2° |
| 2026-04-19 05:51 | -36.28920 | -71.88169 | 34061 ft | 442 kts | 1° |
| 2026-04-19 05:51 | -36.22940 | -71.86407 | 34058 ft | 442 kts | 2° |
| 2026-04-19 05:52 | -36.16961 | -71.84649 | 34062 ft | 442 kts | 1° |
| 2026-04-19 05:52 | -36.10979 | -71.82892 | 34058 ft | 442 kts | 2° |
| 2026-04-19 05:53 | -36.04989 | -71.81136 | 34057 ft | 442 kts | 2° |
| 2026-04-19 05:53 | -35.99035 | -71.79393 | 34058 ft | 443 kts | 2° |
| 2026-04-19 05:54 | -35.93036 | -71.77640 | 34058 ft | 443 kts | 2° |
| 2026-04-19 05:54 | -35.87038 | -71.75889 | 34057 ft | 443 kts | 2° |
| 2026-04-19 05:55 | -35.81036 | -71.74141 | 34059 ft | 444 kts | 2° |
| 2026-04-19 05:55 | -35.75061 | -71.72402 | 34055 ft | 444 kts | 2° |
| 2026-04-19 05:56 | -35.69047 | -71.70655 | 34058 ft | 445 kts | 2° |
| 2026-04-19 05:56 | -35.63017 | -71.68906 | 34052 ft | 445 kts | 2° |
| 2026-04-19 05:57 | -35.56984 | -71.67159 | 34057 ft | 446 kts | 2° |
| 2026-04-19 05:57 | -35.50941 | -71.65411 | 34046 ft | 446 kts | 2° |
| 2026-04-19 05:58 | -35.44931 | -71.63675 | 34048 ft | 447 kts | 2° |
| 2026-04-19 05:58 | -35.38880 | -71.61927 | 34052 ft | 447 kts | 2° |
| 2026-04-19 05:59 | -35.32810 | -71.60175 | 34042 ft | 448 kts | 2° |
| 2026-04-19 05:59 | -35.26732 | -71.58422 | 34046 ft | 449 kts | 2° |
| 2026-04-19 06:00 | -35.20649 | -71.56671 | 34041 ft | 449 kts | 2° |
| 2026-04-19 06:00 | -35.14599 | -71.54932 | 34035 ft | 450 kts | 2° |
| 2026-04-19 06:01 | -35.08494 | -71.53180 | 34033 ft | 451 kts | 2° |
| 2026-04-19 06:01 | -35.02376 | -71.51427 | 34020 ft | 452 kts | 3° |
| 2026-04-19 06:02 | -34.96294 | -71.49686 | 34020 ft | 452 kts | 3° |
| 2026-04-19 06:02 | -34.90168 | -71.47936 | 34017 ft | 452 kts | 3° |
| 2026-04-19 06:03 | -34.84039 | -71.46187 | 34009 ft | 452 kts | 3° |
| 2026-04-19 06:03 | -34.77922 | -71.44444 | 34021 ft | 451 kts | 3° |
| 2026-04-19 06:04 | -34.71806 | -71.42704 | 34022 ft | 451 kts | 3° |
| 2026-04-19 06:04 | -34.65745 | -71.40982 | 34005 ft | 450 kts | 4° |
| 2026-04-19 06:05 | -34.59745 | -71.38454 | 34028 ft | 461 kts | 13° |
| 2026-04-19 06:05 | -34.57759 | -71.37440 | 34034 ft | 462 kts | 14° |
| 2026-04-19 06:06 | -34.51846 | -71.34359 | 34024 ft | 462 kts | 13° |
| 2026-04-19 06:06 | -34.45915 | -71.31357 | 34025 ft | 462 kts | 13° |
| 2026-04-19 06:07 | -34.39971 | -71.28429 | 33267 ft | 468 kts | 13° |
| 2026-04-19 06:07 | -34.36962 | -71.26956 | 32502 ft | 465 kts | 13° |
| 2026-04-19 06:07 | -34.33960 | -71.25485 | 31728 ft | 465 kts | 13° |
| 2026-04-19 06:07 | -34.30964 | -71.24020 | 30908 ft | 465 kts | 13° |
| 2026-04-19 06:08 | -34.27955 | -71.22549 | 30039 ft | 467 kts | 14° |
| 2026-04-19 06:08 | -34.24936 | -71.21076 | 28961 ft | 469 kts | 14° |
| 2026-04-19 06:08 | -34.21905 | -71.19595 | 27957 ft | 470 kts | 14° |
| 2026-04-19 06:08 | -34.18876 | -71.18116 | 26923 ft | 470 kts | 14° |
| 2026-04-19 06:09 | -34.15900 | -71.16660 | 26181 ft | 464 kts | 14° |
| 2026-04-19 06:09 | -34.12918 | -71.15202 | 25441 ft | 459 kts | 14° |
| 2026-04-19 06:09 | -34.09977 | -71.13766 | 24705 ft | 454 kts | 14° |
| 2026-04-19 06:09 | -34.07060 | -71.12345 | 23968 ft | 450 kts | 14° |
| 2026-04-19 06:10 | -34.04170 | -71.10942 | 23159 ft | 447 kts | 14° |
| 2026-04-19 06:10 | -34.01298 | -71.09548 | 22357 ft | 442 kts | 14° |
| 2026-04-19 06:10 | -33.98469 | -71.08173 | 21643 ft | 435 kts | 15° |
| 2026-04-19 06:10 | -33.95682 | -71.06820 | 20964 ft | 428 kts | 15° |
| 2026-04-19 06:11 | -33.92949 | -71.05492 | 20326 ft | 421 kts | 15° |
| 2026-04-19 06:11 | -33.90286 | -71.04201 | 19666 ft | 416 kts | 16° |
| 2026-04-19 06:11 | -33.87612 | -71.02908 | 18979 ft | 413 kts | 16° |
| 2026-04-19 06:12 | -33.82329 | -71.00352 | 17489 ft | 405 kts | 17° |
| 2026-04-19 06:12 | -33.79731 | -70.99098 | 16800 ft | 400 kts | 17° |
| 2026-04-19 06:12 | -33.77164 | -70.97859 | 16066 ft | 395 kts | 18° |
| 2026-04-19 06:12 | -33.76818 | -70.97691 | 15983 ft | 394 kts | 18° |
| 2026-04-19 06:13 | -33.74612 | -70.96625 | 15436 ft | 389 kts | 18° |
| 2026-04-19 06:13 | -33.72145 | -70.95436 | 14764 ft | 385 kts | 18° |
| 2026-04-19 06:13 | -33.69676 | -70.94247 | 14109 ft | 381 kts | 18° |
| 2026-04-19 06:13 | -33.67230 | -70.93069 | 13409 ft | 377 kts | 19° |
| 2026-04-19 06:14 | -33.64812 | -70.91904 | 12721 ft | 373 kts | 19° |
| 2026-04-19 06:14 | -33.62422 | -70.90754 | 12076 ft | 368 kts | 19° |
| 2026-04-19 06:14 | -33.60061 | -70.89618 | 11427 ft | 364 kts | 19° |
| 2026-04-19 06:14 | -33.57727 | -70.88496 | 10996 ft | 355 kts | 19° |
| 2026-04-19 06:15 | -33.55526 | -70.87305 | 10850 ft | 341 kts | 26° |
| 2026-04-19 06:15 | -33.53533 | -70.85869 | 10719 ft | 327 kts | 30° |
| 2026-04-19 06:15 | -33.51685 | -70.84432 | 10581 ft | 315 kts | 30° |
| 2026-04-19 06:15 | -33.49878 | -70.83036 | 10462 ft | 303 kts | 29° |
| 2026-04-19 06:16 | -33.48128 | -70.81718 | 10338 ft | 292 kts | 28° |
| 2026-04-19 06:16 | -33.46432 | -70.80462 | 10218 ft | 282 kts | 28° |
| 2026-04-19 06:16 | -33.44790 | -70.79254 | 10104 ft | 272 kts | 28° |
| 2026-04-19 06:16 | -33.43201 | -70.78087 | 9988 ft | 264 kts | 28° |
| 2026-04-19 06:17 | -33.41637 | -70.76941 | 9687 ft | 263 kts | 28° |
| 2026-04-19 06:17 | -33.40105 | -70.75819 | 9402 ft | 261 kts | 28° |
| 2026-04-19 06:17 | -33.38561 | -70.74687 | 9115 ft | 260 kts | 28° |
| 2026-04-19 06:17 | -33.37022 | -70.73561 | 8823 ft | 259 kts | 29° |
| 2026-04-19 06:18 | -33.35490 | -70.72438 | 8531 ft | 258 kts | 29° |
| 2026-04-19 06:18 | -33.33962 | -70.71319 | 8246 ft | 257 kts | 29° |
| 2026-04-19 06:18 | -33.32464 | -70.70222 | 8119 ft | 249 kts | 29° |
| 2026-04-19 06:18 | -33.30946 | -70.69324 | 7965 ft | 241 kts | 12° |
| 2026-04-19 06:19 | -33.29276 | -70.69194 | 7707 ft | 243 kts | 355° |
| 2026-04-19 06:19 | -33.27571 | -70.69394 | 7444 ft | 249 kts | 353° |
| 2026-04-19 06:19 | -33.25861 | -70.69634 | 7170 ft | 252 kts | 353° |
| 2026-04-19 06:19 | -33.24117 | -70.69869 | 6882 ft | 252 kts | 354° |
| 2026-04-19 06:20 | -33.22376 | -70.70090 | 6594 ft | 252 kts | 354° |
| 2026-04-19 06:20 | -33.20639 | -70.70304 | 6300 ft | 252 kts | 354° |
| 2026-04-19 06:20 | -33.18896 | -70.70517 | 6003 ft | 251 kts | 354° |
| 2026-04-19 06:20 | -33.17203 | -70.70909 | 5743 ft | 248 kts | 334° |
| 2026-04-19 06:21 | -33.16000 | -70.72293 | 5634 ft | 242 kts | 296° |
| 2026-04-19 06:21 | -33.15730 | -70.74194 | 5638 ft | 227 kts | 269° |
| 2026-04-19 06:21 | -33.15798 | -70.75986 | 5604 ft | 211 kts | 269° |
| 2026-04-19 06:21 | -33.15887 | -70.77692 | 5443 ft | 201 kts | 262° |
| 2026-04-19 06:22 | -33.16558 | -70.79075 | 5349 ft | 197 kts | 215° |
| 2026-04-19 06:22 | -33.17867 | -70.79514 | 5245 ft | 200 kts | 182° |
| 2026-04-19 06:22 | -33.19261 | -70.79587 | 5091 ft | 200 kts | 181° |
| 2026-04-19 06:22 | -33.20647 | -70.79577 | 4876 ft | 200 kts | 178° |
| 2026-04-19 06:23 | -33.22029 | -70.79514 | 4624 ft | 198 kts | 178° |
| 2026-04-19 06:23 | -33.23392 | -70.79441 | 4376 ft | 195 kts | 177° |
| 2026-04-19 06:23 | -33.24717 | -70.79369 | 4128 ft | 190 kts | 177° |
| 2026-04-19 06:23 | -33.26003 | -70.79299 | 3861 ft | 180 kts | 177° |
| 2026-04-19 06:24 | -33.27214 | -70.79233 | 3631 ft | 169 kts | 177° |
| 2026-04-19 06:24 | -33.28317 | -70.79174 | 3460 ft | 148 kts | 177° |
| 2026-04-19 06:24 | -33.29291 | -70.79121 | 3234 ft | 134 kts | 177° |
| 2026-04-19 06:24 | -33.30206 | -70.79071 | 3059 ft | 132 kts | 177° |
| 2026-04-19 06:25 | -33.31128 | -70.79021 | 2878 ft | 134 kts | 176° |
| 2026-04-19 06:25 | -33.32042 | -70.78972 | 2691 ft | 132 kts | 176° |
| 2026-04-19 06:25 | -33.32956 | -70.78923 | 2501 ft | 131 kts | 176° |
| 2026-04-19 06:25 | -33.33863 | -70.78873 | 2328 ft | 130 kts | 176° |
| 2026-04-19 06:26 | -33.34769 | -70.78824 | 2152 ft | 130 kts | 176° |
| 2026-04-19 06:26 | -33.35670 | -70.78776 | 1984 ft | 130 kts | 176° |
| 2026-04-19 06:26 | -33.36570 | -70.78727 | 1808 ft | 130 kts | 176° |
| 2026-04-19 06:26 | -33.37468 | -70.78679 | 1639 ft | 128 kts | 176° |
| 2026-04-19 06:27 | -33.38311 | -70.78638 | 1566 ft | 111 kts | 176° |
| 2026-04-19 06:27 | -33.38874 | -70.78603 | 1564 ft | 34 kts | 177° |
| 2026-04-19 06:27 | -33.39083 | -70.78632 | 1563 ft | 24 kts | 201° |
| 2026-04-19 06:27 | -33.39215 | -70.78709 | 1563 ft | 16 kts | 207° |
| 2026-04-19 06:28 | -33.39304 | -70.78768 | 1563 ft | 12 kts | 210° |
| 2026-04-19 06:28 | -33.39312 | -70.78774 | 1563 ft | 0 kts | 210° |
| 2026-04-19 06:28 | -33.39316 | -70.78777 | 1563 ft | 2 kts | 210° |
| 2026-04-19 06:29 | -33.39326 | -70.78783 | 1563 ft | 0 kts | 210° |
| 2026-04-19 06:29 | -33.39348 | -70.78799 | 1563 ft | 10 kts | 210° |
| 2026-04-19 06:30 | -33.39416 | -70.78846 | 1563 ft | 12 kts | 210° |
| 2026-04-19 06:30 | -33.39483 | -70.78904 | 1564 ft | 13 kts | 243° |
| 2026-04-19 06:30 | -33.39494 | -70.79016 | 1563 ft | 14 kts | 268° |
| 2026-04-19 06:30 | -33.39498 | -70.79129 | 1563 ft | 13 kts | 268° |
| 2026-04-19 06:31 | -33.39502 | -70.79237 | 1563 ft | 13 kts | 267° |
| 2026-04-19 06:31 | -33.39542 | -70.79296 | 1563 ft | 10 kts | 182° |
| 2026-04-19 06:31 | -33.39591 | -70.79294 | 1563 ft | 3 kts | 177° |
| 2026-04-19 06:31 | -33.39593 | -70.79294 | 1563 ft | 1 kts | 176° |
| 2026-04-19 06:32 | -33.39594 | -70.79294 | 1563 ft | 0 kts | 176° |